Карточка аэропорта UNNT

Внимание!
Информация на этой странице в стадии наполнения.
Если вы не увидели какой-то информации, или заметили неточность - пожалуйста сообщите нам!
Спасибо!
Команда RU-STAFF
Название аэропортаТолмачево
Название аэропорта (англ.)Tolmachevo
Превышение367 ft. (111.9 m.)
Координаты55°0.77999999999989', 82°38.178'
Высота перехода6000ft
Эшелон переходаQNH>=1013hPa:FL70; QNH<1013hPa:FL80; QNH<977hPa:FL90
Коды ответчика5201-5227
Зона ОрВДНовосибирск РПИ (UNNT)
Данные METARUNNT 122100Z 00000MPS CAVOK 14/14 Q1007 R07/090070 R34/////// NOSIG RMK QFE746/0994
Проноз погоды (TAF)UNNT 122000Z 1221/1321 08003G08MPS 8000 SCT040 TX28/1309Z TN13/1223Z TEMPO 1221/1301 0500 FG
NOTAMshow/hide NOTAM
AWOS   TABLE

Информация о ВПП

ВПП Длина ВПП (м.) Покрытие Курс ВПП Частота ILS
163602Цементобетон161109.7
343602Цементобетон341111.1
073597Асфальтобетон72110.1
253597Асфальтобетон252108.5

Диспетчерские позиции

Позывной Наименование органа УВД Частота
UNNT_TWRНовосибирск-Вышка118.5
UNNT_GNDНовосибирск-Руление121.7
UNNT_R_APPНовосибирск-Круг122.0
UNNT_APPНовосибирск-Подход127.5
UNNT_DEL Новосибирск-Деливери135.4



Спутниковое изображение